createdAt,value
2023-04-18T00:01:56.405Z,102559.47
2023-04-18T00:04:23.657Z,102556.09
2023-04-18T00:06:51.328Z,102548.56
2023-04-18T00:09:18.402Z,102551.88
2023-04-18T00:11:45.554Z,102553.72
2023-04-18T00:14:13.682Z,102549.16
2023-04-18T00:16:40.932Z,102548.56
2023-04-18T00:19:08.766Z,102548.41
2023-04-18T00:21:37.263Z,102546.16
2023-04-18T00:24:04.486Z,102547.53
2023-04-18T00:26:31.538Z,102547.66
2023-04-18T00:28:58.508Z,102548.22
2023-04-18T00:31:25.679Z,102541.25
2023-04-18T00:33:52.832Z,102539.75
2023-04-18T00:36:19.814Z,102536.38
2023-04-18T00:38:46.774Z,102537.13
2023-04-18T00:41:13.781Z,102539.53
2023-04-18T00:43:40.775Z,102539.16
2023-04-18T00:46:07.809Z,102539.03
2023-04-18T00:48:34.921Z,102542.31
2023-04-18T00:51:02.049Z,102538.06
2023-04-18T00:53:30.200Z,102535.94
2023-04-18T00:55:57.669Z,102535.13
2023-04-18T00:58:24.999Z,102528.75
2023-04-18T01:00:52.253Z,102531.22
2023-04-18T01:03:19.996Z,102528.69
2023-04-18T01:05:47.227Z,102534.50
2023-04-18T01:08:14.764Z,102536.00
2023-04-18T01:10:42.331Z,102530.25
2023-04-18T01:13:17.835Z,102540.50
2023-04-18T01:15:49.861Z,102529.09
2023-04-18T01:18:17.928Z,102530.16
2023-04-18T01:20:50.283Z,102528.75
2023-04-18T01:23:19.260Z,102527.31
2023-04-18T01:25:49.369Z,102523.44
2023-04-18T01:28:16.550Z,102520.50
2023-04-18T01:30:43.598Z,102509.28
2023-04-18T01:33:11.039Z,102518.03
2023-04-18T01:35:38.124Z,102523.78
2023-04-18T01:38:05.125Z,102516.28
2023-04-18T01:40:32.188Z,102519.78
2023-04-18T01:42:59.198Z,102514.63
2023-04-18T01:45:26.186Z,102512.41
2023-04-18T01:47:53.162Z,102511.59
2023-04-18T01:50:20.304Z,102512.75
2023-04-18T01:52:47.362Z,102514.03
2023-04-18T01:55:14.352Z,102511.78
2023-04-18T01:57:41.532Z,102514.84
2023-04-18T02:00:09.281Z,102512.25
2023-04-18T02:02:36.437Z,102515.34
2023-04-18T02:05:03.595Z,102509.13
2023-04-18T02:07:30.576Z,102512.56
2023-04-18T02:09:57.566Z,102508.75
2023-04-18T02:12:24.586Z,102500.88
2023-04-18T02:14:56.355Z,102505.84
2023-04-18T02:17:23.996Z,102503.88
2023-04-18T02:19:51.736Z,102511.41
2023-04-18T02:22:18.893Z,102501.09
2023-04-18T02:24:46.065Z,102501.75
2023-04-18T02:27:13.085Z,102503.47
2023-04-18T02:29:40.097Z,102502.41
2023-04-18T02:32:07.423Z,102500.53
2023-04-18T02:34:34.672Z,102496.47
2023-04-18T02:37:01.640Z,102498.13
2023-04-18T02:39:28.671Z,102501.72
2023-04-18T02:41:55.620Z,102501.72
2023-04-18T02:44:22.567Z,102496.31
2023-04-18T02:46:49.567Z,102493.78
2023-04-18T02:49:16.512Z,102493.44
2023-04-18T02:51:43.467Z,102496.56
2023-04-18T02:54:10.458Z,102495.97
2023-04-18T02:56:40.069Z,102486.41
2023-04-18T02:59:07.639Z,102491.94
2023-04-18T03:01:34.812Z,102488.25
2023-04-18T03:04:01.891Z,102489.59
2023-04-18T03:06:28.899Z,102489.16
2023-04-18T03:08:56.036Z,102494.97
2023-04-18T03:11:23.022Z,102488.50
2023-04-18T03:13:50.022Z,102490.84
2023-04-18T03:16:17.683Z,102498.13
2023-04-18T03:18:44.706Z,102500.75
2023-04-18T03:21:11.852Z,102492.91
2023-04-18T03:23:39.082Z,102500.03
2023-04-18T03:26:08.090Z,102493.16
2023-04-18T03:28:35.137Z,102492.75
2023-04-18T03:31:02.254Z,102480.31
2023-04-18T03:33:29.368Z,102489.06
2023-04-18T03:35:56.344Z,102498.22
2023-04-18T03:38:23.337Z,102497.72
2023-04-18T03:40:50.413Z,102491.56
2023-04-18T03:43:18.728Z,102498.81
2023-04-18T03:45:47.493Z,102502.84
2023-04-18T03:48:14.932Z,102504.19
2023-04-18T03:50:42.058Z,102503.94
2023-04-18T03:53:09.114Z,102500.34
2023-04-18T03:55:36.146Z,102503.03
2023-04-18T03:58:03.131Z,102499.16
2023-04-18T04:00:30.302Z,102501.31
2023-04-18T04:02:57.620Z,102498.16
2023-04-18T04:05:24.887Z,102504.56
2023-04-18T04:07:51.906Z,102504.00
2023-04-18T04:10:19.014Z,102504.81
2023-04-18T04:12:46.926Z,102497.69
2023-04-18T04:15:13.933Z,102503.47
2023-04-18T04:17:41.028Z,102502.72
2023-04-18T04:20:09.345Z,102503.63
2023-04-18T04:22:36.842Z,102497.50
2023-04-18T04:25:05.212Z,102505.53
2023-04-18T04:27:34.098Z,102492.81
2023-04-18T04:30:05.256Z,102508.94
2023-04-18T04:32:33.126Z,102510.78
2023-04-18T04:35:00.662Z,102518.81
2023-04-18T04:37:28.196Z,102506.47
2023-04-18T04:39:56.611Z,102519.63
2023-04-18T04:42:25.212Z,102515.47
2023-04-18T04:44:53.717Z,102519.06
2023-04-18T04:47:20.880Z,102510.44
2023-04-18T04:49:47.823Z,102519.25
2023-04-18T04:52:14.786Z,102521.78
2023-04-18T04:54:41.872Z,102510.53
2023-04-18T04:57:08.845Z,102514.28
2023-04-18T04:59:36.227Z,102517.88
2023-04-18T05:02:03.457Z,102516.00
2023-04-18T05:04:30.829Z,102521.41
2023-04-18T05:06:58.175Z,102522.59
2023-04-18T05:09:26.152Z,102524.28
2023-04-18T05:11:53.122Z,102515.28
2023-04-18T05:14:20.818Z,102519.06
2023-04-18T05:16:47.952Z,102526.34
2023-04-18T05:19:14.981Z,102521.13
2023-04-18T05:21:41.938Z,102522.13
2023-04-18T05:24:09.113Z,102525.72
2023-04-18T05:26:36.296Z,102531.22
2023-04-18T05:29:03.510Z,102534.91
2023-04-18T05:31:30.964Z,102530.41
2023-04-18T05:33:58.003Z,102538.72
2023-04-18T05:36:25.079Z,102534.03
2023-04-18T05:38:52.061Z,102542.31
2023-04-18T05:41:19.020Z,102539.63
2023-04-18T05:43:51.146Z,102540.00
2023-04-18T05:46:29.379Z,102552.44
2023-04-18T05:48:57.025Z,102534.66
2023-04-18T05:51:23.997Z,102522.84
2023-04-18T05:53:51.155Z,102524.69
2023-04-18T05:56:18.125Z,102527.84
2023-04-18T05:58:46.778Z,102527.22
2023-04-18T06:01:18.568Z,102536.56
2023-04-18T06:03:45.799Z,102524.03
2023-04-18T06:06:13.242Z,102526.03
2023-04-18T06:08:40.617Z,102529.00
2023-04-18T06:11:09.016Z,102529.28
2023-04-18T06:13:37.219Z,102528.78
2023-04-18T06:16:05.032Z,102531.56
2023-04-18T06:18:32.085Z,102520.09
2023-04-18T06:20:59.065Z,102531.88
2023-04-18T06:23:26.052Z,102528.69
2023-04-18T06:25:53.106Z,102521.66
2023-04-18T06:28:20.081Z,102527.06
2023-04-18T06:30:47.045Z,102525.44
2023-04-18T06:33:14.012Z,102529.06
2023-04-18T06:35:41.333Z,102533.91
2023-04-18T06:38:08.899Z,102528.53
2023-04-18T06:40:36.044Z,102536.63
2023-04-18T06:43:03.125Z,102532.31
2023-04-18T06:45:33.127Z,102533.31
2023-04-18T06:48:02.600Z,102527.28
2023-04-18T06:50:30.232Z,102530.69
2023-04-18T06:52:57.300Z,102529.06
2023-04-18T06:55:24.272Z,102520.38
2023-04-18T06:57:51.344Z,102524.88
2023-04-18T07:00:18.600Z,102533.03
2023-04-18T07:02:45.731Z,102531.06
2023-04-18T07:05:12.843Z,102531.13
2023-04-18T07:07:39.844Z,102527.81
2023-04-18T07:10:09.614Z,102531.50
2023-04-18T07:12:36.665Z,102530.41
2023-04-18T07:15:04.724Z,102531.47
2023-04-18T07:17:32.069Z,102527.03
2023-04-18T07:19:59.519Z,102527.13
2023-04-18T07:22:26.521Z,102529.69
2023-04-18T07:24:53.539Z,102533.31
2023-04-18T07:27:20.629Z,102533.50
2023-04-18T07:29:47.616Z,102523.78
2023-04-18T07:32:14.604Z,102530.00
2023-04-18T07:34:41.704Z,102528.41
2023-04-18T07:37:08.799Z,102525.59
2023-04-18T07:39:36.230Z,102531.91
2023-04-18T07:42:06.491Z,102527.34
2023-04-18T07:44:35.833Z,102530.16
2023-04-18T07:47:03.385Z,102530.09
2023-04-18T07:49:30.343Z,102529.22
2023-04-18T07:51:57.800Z,102533.91
2023-04-18T07:54:24.757Z,102528.50
2023-04-18T07:56:51.671Z,102532.25
2023-04-18T07:59:19.289Z,102533.09
2023-04-18T08:01:46.313Z,102531.22
2023-04-18T08:04:14.774Z,102534.09
2023-04-18T08:06:42.051Z,102526.03
2023-04-18T08:09:09.168Z,102530.25
2023-04-18T08:11:36.241Z,102535.75
2023-04-18T08:14:03.372Z,102529.53
2023-04-18T08:16:30.596Z,102535.59
2023-04-18T08:18:57.602Z,102530.47
2023-04-18T08:21:24.663Z,102531.50
2023-04-18T08:23:51.616Z,102529.69
2023-04-18T08:26:19.640Z,102533.09
2023-04-18T08:28:46.804Z,102528.81
2023-04-18T08:31:16.404Z,102525.31
2023-04-18T08:33:43.624Z,102525.28
2023-04-18T08:36:12.093Z,102525.28
2023-04-18T08:38:39.111Z,102532.44
2023-04-18T08:41:06.141Z,102523.59
2023-04-18T08:43:33.202Z,102519.28
2023-04-18T08:46:00.919Z,102528.03
2023-04-18T08:48:28.439Z,102539.66
2023-04-18T08:50:59.369Z,102527.22
2023-04-18T08:53:27.488Z,102532.56
2023-04-18T08:55:57.315Z,102535.13
2023-04-18T08:58:27.391Z,102536.06
2023-04-18T09:00:55.416Z,102536.97
2023-04-18T09:03:43.220Z,102539.50
2023-04-18T09:06:19.366Z,102539.50
2023-04-18T09:08:59.354Z,102536.00
2023-04-18T09:11:29.283Z,102544.00
2023-04-18T09:13:58.894Z,102544.09
2023-04-18T09:16:27.821Z,102535.25
2023-04-18T09:19:18.602Z,102537.06
2023-04-18T09:21:48.886Z,102538.88
2023-04-18T09:24:21.213Z,102535.34
2023-04-18T09:26:49.867Z,102538.88
2023-04-18T09:29:18.694Z,102540.59
2023-04-18T09:32:02.528Z,102537.06
2023-04-18T09:34:29.891Z,102542.44
2023-04-18T09:37:14.973Z,102534.47
2023-04-18T09:39:44.546Z,102539.75
2023-04-18T09:42:12.537Z,102539.66
2023-04-18T09:45:06.298Z,102530.06
2023-04-18T09:47:36.444Z,102529.13
2023-04-18T09:50:06.988Z,102521.22
2023-04-18T09:52:42.723Z,102524.75
2023-04-18T09:55:16.331Z,102525.63
2023-04-18T09:57:47.465Z,102525.69
2023-04-18T10:00:27.200Z,102522.22
2023-04-18T10:03:08.156Z,102524.88
2023-04-18T10:05:38.797Z,102525.78
2023-04-18T10:08:07.363Z,102526.63
2023-04-18T10:10:34.543Z,102516.94
2023-04-18T10:13:05.472Z,102519.50
2023-04-18T10:15:32.973Z,102518.59
2023-04-18T10:18:11.118Z,102523.94
2023-04-18T10:20:41.497Z,102517.81
2023-04-18T10:23:36.177Z,102505.59
2023-04-18T10:26:08.585Z,102508.22
2023-04-18T10:28:57.161Z,102500.25
2023-04-18T10:31:29.343Z,102503.84
2023-04-18T10:34:05.361Z,102501.25
2023-04-18T10:36:33.392Z,102502.22
2023-04-18T10:39:21.414Z,102509.34
2023-04-18T10:41:51.937Z,102500.56
2023-04-18T10:44:22.887Z,102506.78
2023-04-18T10:46:53.095Z,102500.53
2023-04-18T10:49:30.253Z,102507.59
2023-04-18T10:52:02.201Z,102497.84
2023-04-18T10:54:51.609Z,102495.16
2023-04-18T10:57:18.600Z,102490.72
2023-04-18T10:59:51.070Z,102500.44
2023-04-18T11:02:30.178Z,102495.09
2023-04-18T11:05:02.918Z,102499.53
2023-04-18T11:07:34.452Z,102492.53
2023-04-18T11:10:02.214Z,102489.03
2023-04-18T11:12:36.350Z,102489.16
2023-04-18T11:15:11.900Z,102495.31
2023-04-18T11:17:40.252Z,102493.53
2023-04-18T11:20:14.186Z,102491.72
2023-04-18T11:22:50.344Z,102481.13
2023-04-18T11:25:22.203Z,102479.38
2023-04-18T11:27:51.681Z,102482.03
2023-04-18T11:30:19.024Z,102491.72
2023-04-18T11:32:46.149Z,102485.53
2023-04-18T11:35:15.477Z,102488.25
2023-04-18T11:37:45.458Z,102490.91
2023-04-18T11:40:14.158Z,102497.16
2023-04-18T11:42:42.391Z,102489.25
2023-04-18T11:45:14.699Z,102498.97
2023-04-18T11:47:43.477Z,102497.25
2023-04-18T11:50:13.248Z,102493.72
2023-04-18T11:52:42.487Z,102497.25
2023-04-18T11:55:21.259Z,102493.72
2023-04-18T11:57:57.596Z,102494.59
2023-04-18T12:00:37.596Z,102490.19
2023-04-18T12:03:16.300Z,102490.22
2023-04-18T12:05:45.598Z,102495.53
2023-04-18T12:08:20.438Z,102486.72
2023-04-18T12:10:53.421Z,102488.53
2023-04-18T12:13:32.388Z,102488.56
2023-04-18T12:16:02.670Z,102483.28
2023-04-18T12:18:30.007Z,102492.97
2023-04-18T12:20:58.628Z,102487.59
2023-04-18T12:23:40.217Z,102491.13
2023-04-18T12:26:22.504Z,102498.22
2023-04-18T12:28:54.043Z,102495.63
2023-04-18T12:31:22.421Z,102497.41
2023-04-18T12:33:50.568Z,102486.81
2023-04-18T12:36:17.869Z,102494.75
2023-04-18T12:38:45.740Z,102486.84
2023-04-18T12:41:12.781Z,102493.91
2023-04-18T12:43:39.748Z,102492.13
2023-04-18T12:46:06.813Z,102490.41
2023-04-18T12:48:33.782Z,102492.19
2023-04-18T12:51:00.856Z,102494.84
2023-04-18T12:53:27.836Z,102485.09
2023-04-18T12:55:54.880Z,102483.34
2023-04-18T12:58:21.882Z,102491.31
2023-04-18T13:00:49.017Z,102484.25
2023-04-18T13:03:16.304Z,102486.94
2023-04-18T13:05:43.598Z,102492.25
2023-04-18T13:08:16.959Z,102485.16
2023-04-18T13:10:46.360Z,102474.56
2023-04-18T13:13:13.573Z,102480.78
2023-04-18T13:15:41.210Z,102474.63
2023-04-18T13:18:08.535Z,102478.22
2023-04-18T13:20:36.661Z,102479.09
2023-04-18T13:23:03.937Z,102474.69
2023-04-18T13:25:31.354Z,102476.44
2023-04-18T13:28:01.409Z,102483.50
2023-04-18T13:30:28.583Z,102477.31
2023-04-18T13:32:55.593Z,102478.22
2023-04-18T13:35:22.597Z,102485.28
2023-04-18T13:37:49.631Z,102488.00
2023-04-18T13:40:16.650Z,102477.44
2023-04-18T13:42:43.794Z,102465.91
2023-04-18T13:45:11.168Z,102468.59
2023-04-18T13:47:38.372Z,102472.97
2023-04-18T13:50:06.413Z,102477.44
2023-04-18T13:52:33.668Z,102482.75
2023-04-18T13:55:01.116Z,102469.53
2023-04-18T13:57:28.461Z,102472.22
2023-04-18T13:59:55.618Z,102473.97
2023-04-18T14:02:22.908Z,102466.91
2023-04-18T14:04:50.053Z,102461.59
2023-04-18T14:07:17.730Z,102470.44
2023-04-18T14:09:44.731Z,102465.22
2023-04-18T14:12:11.794Z,102461.69
2023-04-18T14:14:38.876Z,102455.47
2023-04-18T14:17:06.551Z,102459.91
2023-04-18T14:19:34.838Z,102456.41
2023-04-18T14:22:01.843Z,102460.81
2023-04-18T14:24:28.847Z,102458.19
2023-04-18T14:26:55.921Z,102452.88
2023-04-18T14:29:22.917Z,102454.78
2023-04-18T14:31:50.347Z,102461.84
2023-04-18T14:34:17.341Z,102455.63
2023-04-18T14:36:44.343Z,102452.97
2023-04-18T14:39:11.577Z,102456.53
2023-04-18T14:41:38.714Z,102445.94
2023-04-18T14:44:05.833Z,102443.31
2023-04-18T14:46:32.856Z,102452.19
2023-04-18T14:49:00.561Z,102452.19
2023-04-18T14:51:27.748Z,102445.16
2023-04-18T14:53:55.568Z,102446.06
2023-04-18T14:56:24.262Z,102447.84
2023-04-18T14:58:51.330Z,102452.25
2023-04-18T15:01:18.609Z,102428.59
2023-04-18T15:03:45.930Z,102431.09
2023-04-18T15:06:13.321Z,102430.25
2023-04-18T15:08:40.664Z,102428.88
2023-04-18T15:11:08.250Z,102428.56
2023-04-18T15:13:35.762Z,102441.09
2023-04-18T15:16:03.114Z,102426.94
2023-04-18T15:18:30.322Z,102431.53
2023-04-18T15:21:00.897Z,102437.66
2023-04-18T15:23:28.373Z,102432.13
2023-04-18T15:25:56.258Z,102428.38
2023-04-18T15:28:23.403Z,102430.13
2023-04-18T15:30:50.605Z,102429.13
2023-04-18T15:33:19.149Z,102426.38
2023-04-18T15:35:47.724Z,102425.34
2023-04-18T15:38:14.780Z,102418.09
2023-04-18T15:40:43.470Z,102417.69
2023-04-18T15:43:10.664Z,102421.00
2023-04-18T15:45:37.642Z,102426.03
2023-04-18T15:48:04.999Z,102418.13
2023-04-18T15:50:33.618Z,102417.41
2023-04-18T15:53:00.846Z,102416.19
2023-04-18T15:55:27.875Z,102408.94
2023-04-18T15:57:56.035Z,102413.25
2023-04-18T16:00:23.954Z,102408.19
2023-04-18T16:02:51.303Z,102408.06
2023-04-18T16:05:19.025Z,102405.72
2023-04-18T16:07:46.175Z,102405.66
2023-04-18T16:10:15.181Z,102404.44
2023-04-18T16:12:42.445Z,102404.53
2023-04-18T16:15:10.581Z,102405.31
2023-04-18T16:17:38.498Z,102403.09
2023-04-18T16:20:08.224Z,102395.88
2023-04-18T16:22:35.767Z,102406.66
2023-04-18T16:25:03.692Z,102394.84
2023-04-18T16:27:32.542Z,102408.03
2023-04-18T16:29:59.520Z,102401.91
2023-04-18T16:32:26.584Z,102395.78
2023-04-18T16:34:53.604Z,102398.63
2023-04-18T16:37:20.809Z,102404.78
2023-04-18T16:39:47.828Z,102404.69
2023-04-18T16:42:15.889Z,102397.66
2023-04-18T16:44:44.824Z,102400.59
2023-04-18T16:47:11.817Z,102400.72
2023-04-18T16:49:38.975Z,102401.38
2023-04-18T16:52:06.004Z,102405.78
2023-04-18T16:54:36.871Z,102398.63
2023-04-18T16:57:04.853Z,102396.78
2023-04-18T16:59:32.148Z,102399.50
2023-04-18T17:02:00.010Z,102400.13
2023-04-18T17:04:27.549Z,102400.94
2023-04-18T17:06:58.011Z,102409.97
2023-04-18T17:09:25.377Z,102403.56
2023-04-18T17:11:52.365Z,102410.34
2023-04-18T17:14:19.426Z,102401.28
2023-04-18T17:16:46.549Z,102402.34
2023-04-18T17:19:13.951Z,102399.81
2023-04-18T17:21:41.347Z,102401.22
2023-04-18T17:24:09.244Z,102407.41
2023-04-18T17:26:38.638Z,102411.97
2023-04-18T17:29:05.761Z,102412.91
2023-04-18T17:31:33.237Z,102418.44
2023-04-18T17:34:00.721Z,102420.69
2023-04-18T17:36:27.849Z,102406.44
2023-04-18T17:38:55.507Z,102411.53
2023-04-18T17:41:22.719Z,102413.03
2023-04-18T17:43:51.043Z,102412.94
2023-04-18T17:46:18.333Z,102400.31
2023-04-18T17:48:45.451Z,102399.16
2023-04-18T17:51:12.601Z,102403.44
2023-04-18T17:53:39.693Z,102400.09
2023-04-18T17:56:06.795Z,102410.41
2023-04-18T17:58:33.761Z,102405.94
2023-04-18T18:01:01.308Z,102414.50
2023-04-18T18:03:28.630Z,102406.31
2023-04-18T18:05:55.873Z,102415.94
2023-04-18T18:08:25.033Z,102421.88
2023-04-18T18:10:52.094Z,102416.66
2023-04-18T18:13:19.069Z,102412.06
2023-04-18T18:15:46.122Z,102425.09
2023-04-18T18:18:13.186Z,102426.59
2023-04-18T18:20:43.243Z,102424.84
2023-04-18T18:23:10.331Z,102426.34
2023-04-18T18:25:37.831Z,102427.94
2023-04-18T18:28:04.978Z,102425.16
2023-04-18T18:30:31.983Z,102433.66
2023-04-18T18:32:59.392Z,102430.66
2023-04-18T18:35:26.452Z,102434.47
2023-04-18T18:37:53.437Z,102441.94
2023-04-18T18:40:20.832Z,102437.38
2023-04-18T18:42:51.280Z,102438.88
2023-04-18T18:45:21.179Z,102452.91
2023-04-18T18:47:48.827Z,102444.66
2023-04-18T18:50:15.993Z,102442.69
2023-04-18T18:52:43.313Z,102446.75
2023-04-18T18:55:11.293Z,102447.50
2023-04-18T18:57:38.307Z,102449.88
2023-04-18T19:00:11.015Z,102453.25
2023-04-18T19:02:39.185Z,102457.34
2023-04-18T19:05:07.097Z,102459.78
2023-04-18T19:07:34.113Z,102463.19
2023-04-18T19:10:01.926Z,102468.16
2023-04-18T19:12:29.275Z,102467.91
2023-04-18T19:14:56.419Z,102465.97
2023-04-18T19:17:24.853Z,102467.28
2023-04-18T19:19:53.076Z,102474.25
2023-04-18T19:22:20.046Z,102473.97
2023-04-18T19:24:47.494Z,102480.59
2023-04-18T19:27:14.536Z,102479.19
2023-04-18T19:29:41.570Z,102483.69
2023-04-18T19:32:08.695Z,102482.06
2023-04-18T19:34:35.859Z,102490.56
2023-04-18T19:37:03.605Z,102484.06
2023-04-18T19:39:30.584Z,102487.53
2023-04-18T19:41:57.579Z,102489.16
2023-04-18T19:44:24.683Z,102487.44
2023-04-18T19:46:51.683Z,102500.97
2023-04-18T19:49:18.738Z,102498.38
2023-04-18T19:51:45.764Z,102497.44
2023-04-18T19:54:13.341Z,102508.69
2023-04-18T19:56:40.386Z,102505.22
2023-04-18T19:59:07.531Z,102503.25
2023-04-18T20:01:34.603Z,102498.53
2023-04-18T20:04:02.089Z,102505.72
2023-04-18T20:06:31.013Z,102500.09
2023-04-18T20:08:58.067Z,102501.63
2023-04-18T20:11:25.030Z,102500.53
2023-04-18T20:13:54.457Z,102496.59
2023-04-18T20:16:22.134Z,102511.19
2023-04-18T20:18:50.047Z,102500.19
2023-04-18T20:21:17.082Z,102501.50
2023-04-18T20:23:45.272Z,102502.47
2023-04-18T20:26:12.312Z,102506.63
2023-04-18T20:28:39.520Z,102505.94
2023-04-18T20:31:07.146Z,102503.13
2023-04-18T20:33:34.611Z,102507.28
2023-04-18T20:36:01.618Z,102511.59
2023-04-18T20:38:29.435Z,102507.28
2023-04-18T20:40:58.840Z,102507.22
2023-04-18T20:43:26.145Z,102497.84
2023-04-18T20:45:54.469Z,102510.75
2023-04-18T20:48:21.681Z,102514.09
2023-04-18T20:50:51.889Z,102507.94
2023-04-18T20:53:25.115Z,102512.09
2023-04-18T20:55:52.081Z,102518.31
2023-04-18T20:58:19.089Z,102517.88
2023-04-18T21:00:46.271Z,102512.09
2023-04-18T21:03:14.164Z,102519.56
2023-04-18T21:05:41.353Z,102515.44
2023-04-18T21:08:08.295Z,102517.13
2023-04-18T21:10:35.312Z,102517.94
2023-04-18T21:13:02.313Z,102515.31
2023-04-18T21:15:29.517Z,102521.00
2023-04-18T21:17:56.644Z,102520.16
2023-04-18T21:20:23.935Z,102527.91
2023-04-18T21:22:51.008Z,102526.06
2023-04-18T21:25:19.529Z,102527.91
2023-04-18T21:27:46.580Z,102527.59
2023-04-18T21:30:13.762Z,102523.44
2023-04-18T21:32:40.754Z,102524.91
2023-04-18T21:35:08.478Z,102525.88
2023-04-18T21:37:35.488Z,102524.75
2023-04-18T21:40:02.545Z,102527.25
2023-04-18T21:42:29.513Z,102528.78
2023-04-18T21:44:56.475Z,102527.00
2023-04-18T21:47:23.480Z,102524.97
2023-04-18T21:49:50.717Z,102531.91
2023-04-18T21:52:17.772Z,102523.94
2023-04-18T21:54:44.787Z,102524.97
2023-04-18T21:57:11.883Z,102529.91
2023-04-18T21:59:38.916Z,102530.94
2023-04-18T22:02:06.033Z,102524.50
2023-04-18T22:04:33.854Z,102518.41
2023-04-18T22:07:00.924Z,102518.22
2023-04-18T22:09:28.600Z,102531.56
2023-04-18T22:11:56.968Z,102521.88
2023-04-18T22:14:24.902Z,102520.97
2023-04-18T22:16:52.030Z,102524.31
2023-04-18T22:19:19.413Z,102529.63
2023-04-18T22:21:46.586Z,102519.81
2023-04-18T22:24:13.692Z,102520.00
2023-04-18T22:26:41.042Z,102523.41
2023-04-18T22:29:08.066Z,102525.91
2023-04-18T22:31:35.101Z,102521.47
2023-04-18T22:34:02.184Z,102526.66
2023-04-18T22:36:29.129Z,102530.13
2023-04-18T22:38:56.152Z,102530.06
2023-04-18T22:41:23.292Z,102530.56
2023-04-18T22:43:50.476Z,102533.66
2023-04-18T22:46:17.581Z,102531.00
2023-04-18T22:48:46.180Z,102537.69
2023-04-18T22:51:14.799Z,102526.22
2023-04-18T22:53:41.745Z,102533.19
2023-04-18T22:56:08.697Z,102539.34
2023-04-18T22:58:35.743Z,102538.19
2023-04-18T23:01:02.777Z,102533.81
2023-04-18T23:03:34.330Z,102541.63
2023-04-18T23:06:01.644Z,102535.56
2023-04-18T23:08:28.949Z,102540.59
2023-04-18T23:10:55.921Z,102546.34
2023-04-18T23:13:22.923Z,102538.66
2023-04-18T23:15:50.045Z,102547.44
2023-04-18T23:18:17.072Z,102543.59
2023-04-18T23:20:44.101Z,102548.56
2023-04-18T23:23:11.196Z,102544.22
2023-04-18T23:25:38.376Z,102543.31
2023-04-18T23:28:06.344Z,102548.66
2023-04-18T23:30:36.951Z,102547.66
2023-04-18T23:33:04.029Z,102545.66
2023-04-18T23:35:31.122Z,102546.50
2023-04-18T23:37:58.161Z,102546.50
2023-04-18T23:40:25.367Z,102541.84
2023-04-18T23:42:52.372Z,102543.78
2023-04-18T23:45:19.498Z,102543.50
2023-04-18T23:47:46.539Z,102541.84
2023-04-18T23:50:13.593Z,102542.75
2023-04-18T23:52:40.617Z,102544.19
2023-04-18T23:55:08.149Z,102542.22
2023-04-18T23:57:35.128Z,102544.13
